sensor_id;sensor_type;location;lat;lon;timestamp;pressure;altitude;pressure_sealevel;temperature;humidity
5455;BME280;2750;49.050;9.250;2024-01-06T00:04:24;97593.81;;;8.30;89.08
5455;BME280;2750;49.050;9.250;2024-01-06T00:09:26;97599.59;;;8.49;88.98
5455;BME280;2750;49.050;9.250;2024-01-06T00:14:28;97599.75;;;8.61;87.51
5455;BME280;2750;49.050;9.250;2024-01-06T00:19:30;97594.34;;;8.50;87.69
5455;BME280;2750;49.050;9.250;2024-01-06T00:24:32;97602.22;;;8.63;87.67
5455;BME280;2750;49.050;9.250;2024-01-06T00:29:34;97598.59;;;8.95;87.04
5455;BME280;2750;49.050;9.250;2024-01-06T00:34:36;97591.75;;;8.94;86.41
5455;BME280;2750;49.050;9.250;2024-01-06T00:39:37;97599.50;;;8.80;86.35
5455;BME280;2750;49.050;9.250;2024-01-06T00:44:40;97606.16;;;9.12;84.89
5455;BME280;2750;49.050;9.250;2024-01-06T00:49:42;97616.53;;;9.27;85.93
5455;BME280;2750;49.050;9.250;2024-01-06T00:54:43;97613.56;;;9.33;84.99
5455;BME280;2750;49.050;9.250;2024-01-06T00:59:46;97611.28;;;9.42;83.79
5455;BME280;2750;49.050;9.250;2024-01-06T01:04:48;97627.25;;;9.49;84.00
5455;BME280;2750;49.050;9.250;2024-01-06T01:09:49;97650.34;;;9.52;83.59
5455;BME280;2750;49.050;9.250;2024-01-06T01:14:53;97652.22;;;9.64;83.01
5455;BME280;2750;49.050;9.250;2024-01-06T01:19:54;97645.81;;;9.55;82.21
5455;BME280;2750;49.050;9.250;2024-01-06T01:24:56;97660.72;;;9.52;81.93
5455;BME280;2750;49.050;9.250;2024-01-06T01:29:59;97668.75;;;9.47;82.20
5455;BME280;2750;49.050;9.250;2024-01-06T01:35:00;97669.59;;;9.48;82.00
5455;BME280;2750;49.050;9.250;2024-01-06T01:40:02;97668.13;;;9.44;82.70
5455;BME280;2750;49.050;9.250;2024-01-06T01:45:06;97660.09;;;9.34;82.40
5455;BME280;2750;49.050;9.250;2024-01-06T01:50:08;97675.66;;;9.04;83.92
5455;BME280;2750;49.050;9.250;2024-01-06T01:55:11;97682.16;;;9.11;84.25
5455;BME280;2750;49.050;9.250;2024-01-06T02:00:15;97681.03;;;9.16;83.19
5455;BME280;2750;49.050;9.250;2024-01-06T02:05:16;97681.97;;;9.15;83.71
5455;BME280;2750;49.050;9.250;2024-01-06T02:10:18;97682.88;;;9.13;83.76
5455;BME280;2750;49.050;9.250;2024-01-06T02:15:21;97686.34;;;8.84;84.02
5455;BME280;2750;49.050;9.250;2024-01-06T02:20:23;97683.75;;;8.84;84.42
5455;BME280;2750;49.050;9.250;2024-01-06T02:25:27;97681.06;;;8.86;84.37
5455;BME280;2750;49.050;9.250;2024-01-06T02:30:29;97686.41;;;8.83;85.52
5455;BME280;2750;49.050;9.250;2024-01-06T02:35:30;97694.59;;;8.45;86.15
5455;BME280;2750;49.050;9.250;2024-01-06T02:40:33;97704.50;;;8.53;86.73
5455;BME280;2750;49.050;9.250;2024-01-06T02:45:35;97713.09;;;8.38;86.94
5455;BME280;2750;49.050;9.250;2024-01-06T02:50:36;97710.50;;;8.38;88.58
5455;BME280;2750;49.050;9.250;2024-01-06T02:55:40;97708.16;;;8.49;87.73
5455;BME280;2750;49.050;9.250;2024-01-06T03:00:41;97699.91;;;8.27;88.77
5455;BME280;2750;49.050;9.250;2024-01-06T03:05:43;97718.00;;;8.27;87.92
5455;BME280;2750;49.050;9.250;2024-01-06T03:10:45;97729.66;;;8.18;87.91
5455;BME280;2750;49.050;9.250;2024-01-06T03:15:47;97719.47;;;7.99;88.38
5455;BME280;2750;49.050;9.250;2024-01-06T03:20:49;97723.47;;;7.89;88.81
5455;BME280;2750;49.050;9.250;2024-01-06T03:25:51;97723.47;;;7.89;89.75
5455;BME280;2750;49.050;9.250;2024-01-06T03:30:53;97721.41;;;7.96;87.93
5455;BME280;2750;49.050;9.250;2024-01-06T03:35:54;97726.56;;;8.11;88.12
5455;BME280;2750;49.050;9.250;2024-01-06T03:40:57;97725.56;;;7.98;88.56
5455;BME280;2750;49.050;9.250;2024-01-06T03:45:59;97724.97;;;8.25;87.93
5455;BME280;2750;49.050;9.250;2024-01-06T03:51:01;97720.91;;;8.36;87.25
5455;BME280;2750;49.050;9.250;2024-01-06T03:56:05;97719.09;;;8.38;86.84
5455;BME280;2750;49.050;9.250;2024-01-06T04:01:07;97722.94;;;8.47;86.50
5455;BME280;2750;49.050;9.250;2024-01-06T04:06:08;97730.75;;;8.61;86.33
5455;BME280;2750;49.050;9.250;2024-01-06T04:11:11;97732.69;;;8.57;85.95
5455;BME280;2750;49.050;9.250;2024-01-06T04:16:13;97729.31;;;8.55;85.31
5455;BME280;2750;49.050;9.250;2024-01-06T04:21:14;97730.53;;;8.50;86.09
5455;BME280;2750;49.050;9.250;2024-01-06T04:26:17;97727.94;;;8.50;86.16
5455;BME280;2750;49.050;9.250;2024-01-06T04:31:19;97741.16;;;8.75;85.46
5455;BME280;2750;49.050;9.250;2024-01-06T04:36:20;97738.41;;;9.08;85.72
5455;BME280;2750;49.050;9.250;2024-01-06T04:41:23;97744.31;;;9.10;83.93
5455;BME280;2750;49.050;9.250;2024-01-06T04:46:25;97737.06;;;9.01;84.12
5455;BME280;2750;49.050;9.250;2024-01-06T04:51:26;97740.91;;;9.09;83.60
5455;BME280;2750;49.050;9.250;2024-01-06T04:56:29;97745.09;;;9.12;83.57
5455;BME280;2750;49.050;9.250;2024-01-06T05:01:31;97742.66;;;9.09;83.43
5455;BME280;2750;49.050;9.250;2024-01-06T05:06:34;97755.72;;;8.92;84.60
5455;BME280;2750;49.050;9.250;2024-01-06T05:11:37;97762.91;;;8.87;84.88
5455;BME280;2750;49.050;9.250;2024-01-06T05:16:38;97771.13;;;8.93;84.37
5455;BME280;2750;49.050;9.250;2024-01-06T05:21:40;97773.22;;;9.02;83.53
5455;BME280;2750;49.050;9.250;2024-01-06T05:26:43;97772.78;;;9.10;83.94
5455;BME280;2750;49.050;9.250;2024-01-06T05:31:44;97780.81;;;9.05;84.38
5455;BME280;2750;49.050;9.250;2024-01-06T05:36:47;97774.66;;;8.92;84.96
5455;BME280;2750;49.050;9.250;2024-01-06T05:41:50;97779.31;;;9.01;84.00
5455;BME280;2750;49.050;9.250;2024-01-06T05:46:51;97774.16;;;8.86;84.97
5455;BME280;2750;49.050;9.250;2024-01-06T05:51:53;97779.84;;;8.92;84.23
5455;BME280;2750;49.050;9.250;2024-01-06T05:56:56;97780.13;;;8.72;84.05
5455;BME280;2750;49.050;9.250;2024-01-06T06:01:58;97791.53;;;8.52;83.79
5455;BME280;2750;49.050;9.250;2024-01-06T06:07:00;97796.97;;;8.48;84.27
5455;BME280;2750;49.050;9.250;2024-01-06T06:12:04;97799.00;;;8.26;84.50
5455;BME280;2750;49.050;9.250;2024-01-06T06:17:06;97807.56;;;8.10;85.66
5455;BME280;2750;49.050;9.250;2024-01-06T06:22:07;97815.31;;;8.10;85.71
5455;BME280;2750;49.050;9.250;2024-01-06T06:27:10;97816.06;;;7.80;86.60
5455;BME280;2750;49.050;9.250;2024-01-06T06:32:12;97837.41;;;7.83;87.69
5455;BME280;2750;49.050;9.250;2024-01-06T06:37:14;97834.34;;;7.92;87.87
5455;BME280;2750;49.050;9.250;2024-01-06T06:42:17;97840.13;;;8.30;86.23
5455;BME280;2750;49.050;9.250;2024-01-06T06:47:19;97849.50;;;8.15;86.89
5455;BME280;2750;49.050;9.250;2024-01-06T06:52:20;97849.56;;;8.31;87.33
5455;BME280;2750;49.050;9.250;2024-01-06T06:57:24;97856.41;;;8.48;86.18
5455;BME280;2750;49.050;9.250;2024-01-06T07:02:25;97865.69;;;8.68;85.68
5455;BME280;2750;49.050;9.250;2024-01-06T07:07:27;97865.22;;;8.77;84.98
5455;BME280;2750;49.050;9.250;2024-01-06T07:12:30;97873.69;;;8.79;84.87
5455;BME280;2750;49.050;9.250;2024-01-06T07:17:31;97880.19;;;8.86;84.42
5455;BME280;2750;49.050;9.250;2024-01-06T07:22:33;97881.56;;;8.77;84.42
5455;BME280;2750;49.050;9.250;2024-01-06T07:27:36;97876.94;;;8.82;83.76
5455;BME280;2750;49.050;9.250;2024-01-06T07:32:38;97879.47;;;8.99;83.89
5455;BME280;2750;49.050;9.250;2024-01-06T07:37:39;97890.78;;;9.12;83.00
5455;BME280;2750;49.050;9.250;2024-01-06T07:42:42;97904.34;;;9.47;82.84
5455;BME280;2750;49.050;9.250;2024-01-06T07:47:44;97900.91;;;9.63;81.01
5455;BME280;2750;49.050;9.250;2024-01-06T07:52:45;97905.53;;;9.87;81.78
5455;BME280;2750;49.050;9.250;2024-01-06T07:57:48;97907.13;;;9.74;81.15
5455;BME280;2750;49.050;9.250;2024-01-06T08:02:50;97910.50;;;9.76;80.17
5455;BME280;2750;49.050;9.250;2024-01-06T08:07:51;97904.16;;;9.96;79.79
5455;BME280;2750;49.050;9.250;2024-01-06T08:12:54;97908.22;;;9.70;81.02
5455;BME280;2750;49.050;9.250;2024-01-06T08:17:56;97912.31;;;10.04;80.56
5455;BME280;2750;49.050;9.250;2024-01-06T08:22:58;97907.53;;;9.82;80.17
5455;BME280;2750;49.050;9.250;2024-01-06T08:28:00;97907.66;;;9.95;80.21
5455;BME280;2750;49.050;9.250;2024-01-06T08:33:03;97916.22;;;9.81;81.05
5455;BME280;2750;49.050;9.250;2024-01-06T08:38:04;97931.91;;;9.64;82.03
5455;BME280;2750;49.050;9.250;2024-01-06T08:43:07;97938.56;;;9.23;82.23
5455;BME280;2750;49.050;9.250;2024-01-06T08:48:09;97937.78;;;9.05;84.40
5455;BME280;2750;49.050;9.250;2024-01-06T08:53:12;97942.06;;;9.06;83.98
5455;BME280;2750;49.050;9.250;2024-01-06T08:58:14;97948.66;;;8.96;85.10
5455;BME280;2750;49.050;9.250;2024-01-06T09:03:17;97953.41;;;9.35;84.14
5455;BME280;2750;49.050;9.250;2024-01-06T09:08:25;97953.25;;;9.38;84.92
5455;BME280;2750;49.050;9.250;2024-01-06T09:13:27;97955.06;;;9.51;85.06
5455;BME280;2750;49.050;9.250;2024-01-06T09:18:29;97955.22;;;9.64;85.57
5455;BME280;2750;49.050;9.250;2024-01-06T09:23:31;97962.03;;;9.81;83.97
5455;BME280;2750;49.050;9.250;2024-01-06T09:28:34;97962.56;;;10.01;83.36
5455;BME280;2750;49.050;9.250;2024-01-06T09:33:35;97969.38;;;9.88;83.83
5455;BME280;2750;49.050;9.250;2024-01-06T09:38:37;97971.16;;;9.72;84.04
5455;BME280;2750;49.050;9.250;2024-01-06T09:43:40;97975.53;;;9.86;84.43
5455;BME280;2750;49.050;9.250;2024-01-06T09:48:43;97971.53;;;9.96;83.17
5455;BME280;2750;49.050;9.250;2024-01-06T09:53:48;97982.56;;;10.29;83.54
5455;BME280;2750;49.050;9.250;2024-01-06T09:58:51;97985.28;;;10.56;82.69
5455;BME280;2750;49.050;9.250;2024-01-06T10:03:53;97989.94;;;10.21;83.01
5455;BME280;2750;49.050;9.250;2024-01-06T10:08:54;97989.50;;;10.29;82.15
5455;BME280;2750;49.050;9.250;2024-01-06T10:13:57;97989.38;;;10.00;82.51
5455;BME280;2750;49.050;9.250;2024-01-06T10:18:59;97992.38;;;10.08;82.39
5455;BME280;2750;49.050;9.250;2024-01-06T10:24:01;97991.84;;;9.88;83.72
5455;BME280;2750;49.050;9.250;2024-01-06T10:29:04;97987.84;;;10.12;83.39
5455;BME280;2750;49.050;9.250;2024-01-06T10:34:06;97990.63;;;10.39;82.74
5455;BME280;2750;49.050;9.250;2024-01-06T10:39:08;97995.25;;;10.34;82.48
5455;BME280;2750;49.050;9.250;2024-01-06T10:44:12;97994.47;;;10.18;82.16
5455;BME280;2750;49.050;9.250;2024-01-06T10:49:17;97998.13;;;10.29;82.51
5455;BME280;2750;49.050;9.250;2024-01-06T10:54:19;97997.13;;;9.71;86.08
5455;BME280;2750;49.050;9.250;2024-01-06T10:59:23;98000.94;;;9.95;86.04
5455;BME280;2750;49.050;9.250;2024-01-06T11:04:27;97992.97;;;9.52;86.95
5455;BME280;2750;49.050;9.250;2024-01-06T11:09:32;97996.91;;;9.59;87.67
5455;BME280;2750;49.050;9.250;2024-01-06T11:14:37;97986.28;;;9.64;86.54
5455;BME280;2750;49.050;9.250;2024-01-06T11:19:44;97988.47;;;9.56;87.34
5455;BME280;2750;49.050;9.250;2024-01-06T11:24:50;97989.97;;;9.29;87.64
5455;BME280;2750;49.050;9.250;2024-01-06T11:30:00;97983.97;;;9.44;87.79
5455;BME280;2750;49.050;9.250;2024-01-06T11:35:12;97981.91;;;9.35;87.99
5455;BME280;2750;49.050;9.250;2024-01-06T11:40:30;97969.03;;;9.18;88.93
5455;BME280;2750;49.050;9.250;2024-01-06T11:45:41;97964.09;;;9.29;88.56
5455;BME280;2750;49.050;9.250;2024-01-06T11:50:46;97970.81;;;8.84;90.31
5455;BME280;2750;49.050;9.250;2024-01-06T11:55:48;97959.94;;;9.26;90.00
5455;BME280;2750;49.050;9.250;2024-01-06T12:00:58;97957.50;;;9.07;89.66
5455;BME280;2750;49.050;9.250;2024-01-06T12:06:03;97947.44;;;9.64;88.29
5455;BME280;2750;49.050;9.250;2024-01-06T12:11:12;97948.31;;;9.49;87.44
5455;BME280;2750;49.050;9.250;2024-01-06T12:16:22;97952.75;;;9.31;88.19
5455;BME280;2750;49.050;9.250;2024-01-06T12:21:30;97949.00;;;9.67;86.36
5455;BME280;2750;49.050;9.250;2024-01-06T12:26:37;97957.22;;;9.59;86.04
5455;BME280;2750;49.050;9.250;2024-01-06T12:31:44;97957.16;;;9.90;86.32
5455;BME280;2750;49.050;9.250;2024-01-06T12:36:55;97955.31;;;9.92;85.36
5455;BME280;2750;49.050;9.250;2024-01-06T12:42:12;97942.88;;;9.83;85.47
5455;BME280;2750;49.050;9.250;2024-01-06T12:47:18;97959.38;;;9.67;84.94
5455;BME280;2750;49.050;9.250;2024-01-06T12:52:23;97956.91;;;9.49;86.22
5455;BME280;2750;49.050;9.250;2024-01-06T12:57:25;97948.50;;;9.76;86.09
5455;BME280;2750;49.050;9.250;2024-01-06T13:02:33;97944.81;;;9.80;86.53
5455;BME280;2750;49.050;9.250;2024-01-06T13:07:38;97947.38;;;9.95;85.27
5455;BME280;2750;49.050;9.250;2024-01-06T13:12:42;97945.53;;;9.52;86.69
5455;BME280;2750;49.050;9.250;2024-01-06T13:18:03;97953.31;;;9.21;86.66
5455;BME280;2750;49.050;9.250;2024-01-06T13:23:09;97950.25;;;9.14;87.39
5455;BME280;2750;49.050;9.250;2024-01-06T13:28:15;97951.72;;;9.49;86.71
5455;BME280;2750;49.050;9.250;2024-01-06T13:33:30;97965.16;;;9.40;86.89
5455;BME280;2750;49.050;9.250;2024-01-06T13:38:32;97970.44;;;9.39;87.32
5455;BME280;2750;49.050;9.250;2024-01-06T13:43:41;97973.03;;;9.07;87.88
5455;BME280;2750;49.050;9.250;2024-01-06T13:48:52;97970.78;;;9.33;87.78
5455;BME280;2750;49.050;9.250;2024-01-06T13:54:04;97978.28;;;9.37;87.31
5455;BME280;2750;49.050;9.250;2024-01-06T13:59:07;97981.06;;;9.19;88.51
5455;BME280;2750;49.050;9.250;2024-01-06T14:04:15;97975.94;;;9.48;87.02
5455;BME280;2750;49.050;9.250;2024-01-06T14:09:24;97988.13;;;9.62;86.26
5455;BME280;2750;49.050;9.250;2024-01-06T14:14:40;97991.47;;;9.64;86.06
5455;BME280;2750;49.050;9.250;2024-01-06T14:19:49;98000.16;;;9.63;86.19
5455;BME280;2750;49.050;9.250;2024-01-06T14:24:51;97998.16;;;9.68;86.61
5455;BME280;2750;49.050;9.250;2024-01-06T14:30:11;97992.91;;;9.99;85.72
5455;BME280;2750;49.050;9.250;2024-01-06T14:35:15;98006.81;;;10.13;85.20
5455;BME280;2750;49.050;9.250;2024-01-06T14:40:20;98010.84;;;9.73;86.03
5455;BME280;2750;49.050;9.250;2024-01-06T14:45:25;98020.25;;;9.89;85.62
5455;BME280;2750;49.050;9.250;2024-01-06T14:50:29;98009.59;;;10.09;85.00
5455;BME280;2750;49.050;9.250;2024-01-06T14:55:33;98013.00;;;9.96;85.17
5455;BME280;2750;49.050;9.250;2024-01-06T15:00:53;98028.25;;;10.00;85.20
5455;BME280;2750;49.050;9.250;2024-01-06T15:06:04;98032.34;;;10.04;85.19
5455;BME280;2750;49.050;9.250;2024-01-06T15:11:19;98039.53;;;10.31;84.64
5455;BME280;2750;49.050;9.250;2024-01-06T15:16:24;98042.84;;;10.33;84.17
5455;BME280;2750;49.050;9.250;2024-01-06T15:21:31;98046.56;;;10.43;83.68
5455;BME280;2750;49.050;9.250;2024-01-06T15:26:41;98046.94;;;10.37;83.41
5455;BME280;2750;49.050;9.250;2024-01-06T15:31:54;98055.16;;;10.14;83.90
5455;BME280;2750;49.050;9.250;2024-01-06T15:36:59;98060.34;;;10.14;84.43
5455;BME280;2750;49.050;9.250;2024-01-06T15:42:08;98061.63;;;10.06;85.09
5455;BME280;2750;49.050;9.250;2024-01-06T15:47:10;98065.66;;;9.96;84.77
5455;BME280;2750;49.050;9.250;2024-01-06T15:52:18;98068.97;;;9.98;85.27
5455;BME280;2750;49.050;9.250;2024-01-06T15:57:26;98065.47;;;9.99;84.98
5455;BME280;2750;49.050;9.250;2024-01-06T16:02:33;98071.13;;;10.06;84.95
5455;BME280;2750;49.050;9.250;2024-01-06T16:07:41;98071.41;;;10.01;84.67
5455;BME280;2750;49.050;9.250;2024-01-06T16:12:49;98071.97;;;10.06;84.98
5455;BME280;2750;49.050;9.250;2024-01-06T16:23:36;98060.47;;;9.96;85.07
5455;BME280;2750;49.050;9.250;2024-01-06T16:28:43;98073.50;;;9.79;85.97
5455;BME280;2750;49.050;9.250;2024-01-06T16:33:47;98074.00;;;9.70;86.86
5455;BME280;2750;49.050;9.250;2024-01-06T16:38:58;98074.56;;;9.44;87.47
5455;BME280;2750;49.050;9.250;2024-01-06T16:44:06;98077.28;;;9.58;87.35
5455;BME280;2750;49.050;9.250;2024-01-06T16:49:09;98078.69;;;9.48;87.98
5455;BME280;2750;49.050;9.250;2024-01-06T16:54:13;98085.44;;;9.35;88.78
5455;BME280;2750;49.050;9.250;2024-01-06T16:59:20;98076.69;;;9.53;88.41
5455;BME280;2750;49.050;9.250;2024-01-06T17:04:25;98088.66;;;9.23;88.78
5455;BME280;2750;49.050;9.250;2024-01-06T17:09:35;98085.00;;;9.27;89.86
5455;BME280;2750;49.050;9.250;2024-01-06T17:14:37;98095.53;;;9.55;88.94
5455;BME280;2750;49.050;9.250;2024-01-06T17:19:44;98095.41;;;9.58;88.65
5455;BME280;2750;49.050;9.250;2024-01-06T17:24:53;98102.66;;;9.67;88.62
5455;BME280;2750;49.050;9.250;2024-01-06T17:29:58;98104.16;;;9.71;88.21
5455;BME280;2750;49.050;9.250;2024-01-06T17:35:08;98108.19;;;9.77;88.09
5455;BME280;2750;49.050;9.250;2024-01-06T17:40:15;98110.44;;;9.98;88.09
5455;BME280;2750;49.050;9.250;2024-01-06T17:45:32;98117.38;;;9.98;87.71
5455;BME280;2750;49.050;9.250;2024-01-06T17:50:39;98119.13;;;10.13;87.53
5455;BME280;2750;49.050;9.250;2024-01-06T17:55:51;98121.28;;;10.36;86.56
5455;BME280;2750;49.050;9.250;2024-01-06T18:00:53;98124.66;;;10.38;86.57
5455;BME280;2750;49.050;9.250;2024-01-06T18:05:59;98132.66;;;10.49;86.07
5455;BME280;2750;49.050;9.250;2024-01-06T18:11:05;98124.56;;;10.40;86.27
5455;BME280;2750;49.050;9.250;2024-01-06T18:16:17;98127.28;;;10.52;86.23
5455;BME280;2750;49.050;9.250;2024-01-06T18:21:38;98123.91;;;10.66;85.30
5455;BME280;2750;49.050;9.250;2024-01-06T18:26:42;98125.78;;;10.48;85.86
5455;BME280;2750;49.050;9.250;2024-01-06T18:31:53;98129.25;;;10.63;85.84
5455;BME280;2750;49.050;9.250;2024-01-06T18:37:05;98123.59;;;10.57;85.22
5455;BME280;2750;49.050;9.250;2024-01-06T18:42:20;98124.56;;;10.40;85.81
5455;BME280;2750;49.050;9.250;2024-01-06T18:47:39;98117.88;;;10.36;85.56
5455;BME280;2750;49.050;9.250;2024-01-06T18:52:47;98126.16;;;10.11;86.84
5455;BME280;2750;49.050;9.250;2024-01-06T18:57:56;98139.19;;;10.09;87.45
5455;BME280;2750;49.050;9.250;2024-01-06T19:03:13;98135.09;;;10.05;87.16
5455;BME280;2750;49.050;9.250;2024-01-06T19:08:29;98141.41;;;10.17;87.26
5455;BME280;2750;49.050;9.250;2024-01-06T19:13:36;98140.13;;;10.24;86.76
5455;BME280;2750;49.050;9.250;2024-01-06T19:18:53;98142.47;;;10.29;86.61
5455;BME280;2750;49.050;9.250;2024-01-06T19:23:57;98146.91;;;10.42;86.26
5455;BME280;2750;49.050;9.250;2024-01-06T19:29:06;98138.34;;;10.40;85.60
5455;BME280;2750;49.050;9.250;2024-01-06T19:34:19;98153.44;;;10.34;85.86
5455;BME280;2750;49.050;9.250;2024-01-06T19:39:28;98150.72;;;10.35;85.98
5455;BME280;2750;49.050;9.250;2024-01-06T19:44:36;98137.22;;;10.30;85.66
5455;BME280;2750;49.050;9.250;2024-01-06T19:49:39;98139.78;;;9.99;86.36
5455;BME280;2750;49.050;9.250;2024-01-06T19:54:59;98143.41;;;9.96;87.21
5455;BME280;2750;49.050;9.250;2024-01-06T20:00:07;98145.38;;;9.91;87.03
5455;BME280;2750;49.050;9.250;2024-01-06T20:05:12;98156.06;;;10.01;87.15
5455;BME280;2750;49.050;9.250;2024-01-06T20:10:22;98151.91;;;9.98;87.37
5455;BME280;2750;49.050;9.250;2024-01-06T20:15:36;98137.94;;;9.85;87.29
5455;BME280;2750;49.050;9.250;2024-01-06T20:20:47;98155.59;;;9.94;87.41
5455;BME280;2750;49.050;9.250;2024-01-06T20:26:24;98154.47;;;9.83;87.38
5455;BME280;2750;49.050;9.250;2024-01-06T20:31:19;98152.41;;;9.89;88.11
5455;BME280;2750;49.050;9.250;2024-01-06T20:36:34;98158.59;;;10.02;87.21
5455;BME280;2750;49.050;9.250;2024-01-06T20:41:41;98152.59;;;10.18;87.09
5455;BME280;2750;49.050;9.250;2024-01-06T20:47:04;98147.72;;;10.27;86.23
5455;BME280;2750;49.050;9.250;2024-01-06T20:52:09;98149.72;;;10.06;87.26
5455;BME280;2750;49.050;9.250;2024-01-06T20:57:20;98149.53;;;9.78;87.83
5455;BME280;2750;49.050;9.250;2024-01-06T21:02:31;98149.69;;;9.59;88.73
5455;BME280;2750;49.050;9.250;2024-01-06T21:07:36;98147.31;;;9.39;89.37
5455;BME280;2750;49.050;9.250;2024-01-06T21:12:43;98146.78;;;9.33;89.13
5455;BME280;2750;49.050;9.250;2024-01-06T21:17:54;98145.69;;;9.54;89.41
5455;BME280;2750;49.050;9.250;2024-01-06T21:23:02;98139.09;;;9.64;89.11
5455;BME280;2750;49.050;9.250;2024-01-06T21:28:14;98147.94;;;9.60;89.04
5455;BME280;2750;49.050;9.250;2024-01-06T21:33:28;98145.16;;;9.47;90.00
5455;BME280;2750;49.050;9.250;2024-01-06T21:38:40;98147.53;;;9.68;88.96
5455;BME280;2750;49.050;9.250;2024-01-06T21:43:54;98147.84;;;9.46;90.18
5455;BME280;2750;49.050;9.250;2024-01-06T21:49:04;98145.28;;;9.62;89.71
5455;BME280;2750;49.050;9.250;2024-01-06T21:54:15;98160.50;;;9.35;90.36
5455;BME280;2750;49.050;9.250;2024-01-06T21:59:20;98159.56;;;9.03;91.51
5455;BME280;2750;49.050;9.250;2024-01-06T22:04:26;98161.00;;;8.91;92.74
5455;BME280;2750;49.050;9.250;2024-01-06T22:09:32;98164.97;;;8.98;91.83
5455;BME280;2750;49.050;9.250;2024-01-06T22:14:52;98171.66;;;9.02;92.04
5455;BME280;2750;49.050;9.250;2024-01-06T22:20:03;98174.03;;;9.07;92.06
5455;BME280;2750;49.050;9.250;2024-01-06T22:25:06;98178.66;;;9.18;91.43
5455;BME280;2750;49.050;9.250;2024-01-06T22:30:08;98171.66;;;9.20;91.59
5455;BME280;2750;49.050;9.250;2024-01-06T22:35:12;98180.31;;;9.19;91.16
5455;BME280;2750;49.050;9.250;2024-01-06T22:40:14;98177.22;;;9.45;90.72
5455;BME280;2750;49.050;9.250;2024-01-06T22:45:18;98177.22;;;9.45;90.16
5455;BME280;2750;49.050;9.250;2024-01-06T22:50:21;98174.72;;;9.43;90.09
5455;BME280;2750;49.050;9.250;2024-01-06T22:55:22;98181.63;;;9.27;90.79
5455;BME280;2750;49.050;9.250;2024-01-06T23:00:24;98185.91;;;9.44;90.62
5455;BME280;2750;49.050;9.250;2024-01-06T23:05:30;98186.31;;;9.69;90.23
5455;BME280;2750;49.050;9.250;2024-01-06T23:10:31;98192.81;;;9.60;89.92
5455;BME280;2750;49.050;9.250;2024-01-06T23:15:33;98182.47;;;9.76;89.37
5455;BME280;2750;49.050;9.250;2024-01-06T23:20:36;98180.16;;;9.87;88.99
5455;BME280;2750;49.050;9.250;2024-01-06T23:25:37;98196.59;;;9.86;88.70
5455;BME280;2750;49.050;9.250;2024-01-06T23:30:39;98195.50;;;9.75;88.78
5455;BME280;2750;49.050;9.250;2024-01-06T23:35:42;98201.34;;;9.78;88.75
5455;BME280;2750;49.050;9.250;2024-01-06T23:40:44;98199.34;;;9.68;88.70
5455;BME280;2750;49.050;9.250;2024-01-06T23:45:45;98202.78;;;9.68;89.25
5455;BME280;2750;49.050;9.250;2024-01-06T23:50:48;98193.50;;;9.80;88.77
5455;BME280;2750;49.050;9.250;2024-01-06T23:55:51;98197.84;;;9.79;88.35
